CheckWX is a tool to help pilots better visualize weather data.  It is not intended as a substitute for an official pre-flight weather briefing.

15:02:44 UTC

GGOV TAF
Osvaldo Vieira International Airport
Bissau, Guinea-Bissau
TAF GGOV 231100Z 2312/2412 32006KT 8000 NSC

Mar-23@
12:00 UTC

Mar-23 @ 12:00 UTC

Mar-24@
12:00 UTC

Mar-24 @ 12:00 UTC

TAF GGOV 231100Z 2312/2412 32006KT 8000 NSC
Wind
  • 320° at 6 KTS
Cloud Levels
  • No significant clouds